createdAt,value
2022-10-05T00:00:05.571Z,9.10
2022-10-05T00:02:17.654Z,9.73
2022-10-05T00:04:24.031Z,10.80
2022-10-05T00:06:30.335Z,6.05
2022-10-05T00:08:36.001Z,5.65
2022-10-05T00:10:43.079Z,7.68
2022-10-05T00:12:48.059Z,10.77
2022-10-05T00:14:54.055Z,8.85
2022-10-05T00:16:58.400Z,10.80
2022-10-05T00:19:02.248Z,11.45
2022-10-05T00:21:18.501Z,9.93
2022-10-05T00:23:26.950Z,11.13
2022-10-05T00:25:31.118Z,9.57
2022-10-05T00:27:39.595Z,5.97
2022-10-05T00:29:43.247Z,4.35
2022-10-05T00:31:47.040Z,9.13
2022-10-05T00:33:51.522Z,4.68
2022-10-05T00:35:55.313Z,10.50
2022-10-05T00:37:59.696Z,7.43
2022-10-05T00:40:04.303Z,9.80
2022-10-05T00:42:32.871Z,9.95
2022-10-05T00:44:44.788Z,9.13
2022-10-05T00:46:58.425Z,13.45
2022-10-05T00:49:10.521Z,11.48
2022-10-05T00:51:24.808Z,6.43
2022-10-05T00:53:42.858Z,4.00
2022-10-05T00:55:59.237Z,4.32
2022-10-05T00:58:16.339Z,2.88
2022-10-05T01:00:25.010Z,6.55
2022-10-05T01:02:37.092Z,1.52
2022-10-05T01:04:49.327Z,1.30
2022-10-05T01:07:07.186Z,2.05
2022-10-05T01:09:20.270Z,1.35
2022-10-05T01:11:31.435Z,2.92
2022-10-05T01:13:46.173Z,2.70
2022-10-05T01:15:56.897Z,0.68
2022-10-05T01:18:09.085Z,0.93
2022-10-05T01:20:34.079Z,0.30
2022-10-05T01:22:53.915Z,1.45
2022-10-05T01:25:14.066Z,1.35
2022-10-05T01:27:32.299Z,0.65
2022-10-05T01:29:42.369Z,1.17
2022-10-05T01:31:56.267Z,0.30
2022-10-05T01:34:11.604Z,1.38
2022-10-05T01:36:23.143Z,0.47
2022-10-05T01:38:40.968Z,1.55
2022-10-05T01:40:56.267Z,1.75
2022-10-05T01:43:09.875Z,0.60
2022-10-05T01:45:20.533Z,1.40
2022-10-05T01:47:32.672Z,1.40
2022-10-05T01:49:40.079Z,1.55
2022-10-05T01:51:55.815Z,1.17
2022-10-05T01:54:08.669Z,1.17
2022-10-05T01:56:20.773Z,2.85
2022-10-05T01:58:35.830Z,6.50
2022-10-05T02:00:47.155Z,1.60
2022-10-05T02:02:54.151Z,1.00
2022-10-05T02:05:08.587Z,0.70
2022-10-05T02:07:18.343Z,2.15
2022-10-05T02:09:26.680Z,1.88
2022-10-05T02:11:30.749Z,3.80
2022-10-05T02:13:41.405Z,1.85
2022-10-05T02:15:49.933Z,1.38
2022-10-05T02:17:59.048Z,0.52
2022-10-05T02:20:05.522Z,0.50
2022-10-05T02:22:13.009Z,0.93
2022-10-05T02:24:24.586Z,0.65
2022-10-05T02:26:29.156Z,1.42
2022-10-05T02:28:40.019Z,1.15
2022-10-05T02:30:48.909Z,1.00
2022-10-05T02:32:58.076Z,0.95
2022-10-05T02:35:06.112Z,0.75
2022-10-05T02:37:35.748Z,2.35
2022-10-05T02:39:48.810Z,3.60
2022-10-05T02:42:01.741Z,1.08
2022-10-05T02:44:15.020Z,1.17
2022-10-05T02:48:37.950Z,0.60
2022-10-05T02:50:50.780Z,1.05
2022-10-05T02:53:05.684Z,3.13
2022-10-05T02:55:15.612Z,1.52
2022-10-05T02:57:28.709Z,0.40
2022-10-05T02:59:39.315Z,1.17
2022-10-05T03:01:50.610Z,1.58
2022-10-05T03:04:03.879Z,5.78
2022-10-05T03:06:15.524Z,1.77
2022-10-05T03:08:23.321Z,1.58
2022-10-05T03:10:35.969Z,0.85
2022-10-05T03:12:49.358Z,0.20
2022-10-05T03:15:08.743Z,0.30
2022-10-05T03:17:17.244Z,0.60
2022-10-05T03:19:40.986Z,0.20
2022-10-05T03:21:54.280Z,1.70
2022-10-05T03:24:09.762Z,0.68
2022-10-05T03:26:34.966Z,0.75
2022-10-05T03:28:51.031Z,1.95
2022-10-05T03:31:01.494Z,0.73
2022-10-05T03:33:12.992Z,1.17
2022-10-05T03:35:23.815Z,2.75
2022-10-05T03:37:36.124Z,1.50
2022-10-05T03:39:46.466Z,0.65
2022-10-05T03:41:56.570Z,1.60
2022-10-05T03:44:27.721Z,0.20
2022-10-05T03:46:46.301Z,0.68
2022-10-05T03:48:54.780Z,1.15
2022-10-05T03:51:07.418Z,1.98
2022-10-05T03:53:19.295Z,4.57
2022-10-05T03:55:31.558Z,0.38
2022-10-05T03:57:40.036Z,0.45
2022-10-05T03:59:53.832Z,1.13
2022-10-05T04:02:03.477Z,0.40
2022-10-05T04:04:12.689Z,1.48
2022-10-05T04:06:20.593Z,2.45
2022-10-05T04:08:34.051Z,0.77
2022-10-05T04:10:44.536Z,2.20
2022-10-05T04:12:53.768Z,0.47
2022-10-05T04:15:02.325Z,3.97
2022-10-05T04:17:13.216Z,1.25
2022-10-05T04:19:22.837Z,0.47
2022-10-05T04:21:31.425Z,0.20
2022-10-05T04:23:43.949Z,1.77
2022-10-05T04:25:53.093Z,0.90
2022-10-05T04:28:05.765Z,1.05
2022-10-05T04:30:14.386Z,2.30
2022-10-05T04:32:36.727Z,3.75
2022-10-05T04:34:55.130Z,1.00
2022-10-05T04:37:04.325Z,5.00
2022-10-05T04:39:21.119Z,1.23
2022-10-05T04:41:44.355Z,3.92
2022-10-05T04:43:58.867Z,0.30
2022-10-05T04:46:15.177Z,3.42
2022-10-05T04:48:45.892Z,0.38
2022-10-05T04:51:02.574Z,0.90
2022-10-05T04:53:14.685Z,5.05
2022-10-05T04:55:29.654Z,2.05
2022-10-05T04:57:41.806Z,1.23
2022-10-05T05:00:09.947Z,2.92
2022-10-05T05:02:24.494Z,1.98
2022-10-05T05:05:00.691Z,1.23
2022-10-05T05:07:18.178Z,0.55
2022-10-05T05:09:56.947Z,1.52
2022-10-05T05:12:14.204Z,1.48
2022-10-05T05:14:48.010Z,1.13
2022-10-05T05:17:02.785Z,0.52
2022-10-05T05:19:34.878Z,2.65
2022-10-05T05:21:46.322Z,1.20
2022-10-05T05:23:55.250Z,3.05
2022-10-05T05:26:06.668Z,3.15
2022-10-05T05:28:24.595Z,0.80
2022-10-05T05:30:37.044Z,1.27
2022-10-05T05:32:48.031Z,0.40
2022-10-05T05:35:04.772Z,2.95
2022-10-05T05:37:17.009Z,1.25
2022-10-05T05:39:27.425Z,0.85
2022-10-05T05:41:38.880Z,2.58
2022-10-05T05:44:04.474Z,2.03
2022-10-05T05:46:15.891Z,4.68
2022-10-05T05:48:25.744Z,7.32
2022-10-05T05:50:48.311Z,1.27
2022-10-05T05:52:58.253Z,3.08
2022-10-05T05:55:09.643Z,1.50
2022-10-05T05:57:16.655Z,1.80
2022-10-05T05:59:27.332Z,1.27
2022-10-05T06:01:39.569Z,2.78
2022-10-05T06:03:54.241Z,0.60
2022-10-05T06:06:02.038Z,0.95
2022-10-05T06:08:13.701Z,2.33
2022-10-05T06:10:23.679Z,1.73
2022-10-05T06:12:40.598Z,3.70
2022-10-05T06:14:49.058Z,0.50
2022-10-05T06:16:56.691Z,2.50
2022-10-05T06:19:13.525Z,1.42
2022-10-05T06:21:24.231Z,8.43
2022-10-05T06:23:35.523Z,1.10
2022-10-05T06:25:51.173Z,3.15
2022-10-05T06:28:10.887Z,0.30
2022-10-05T06:30:18.923Z,2.80
2022-10-05T06:32:32.597Z,1.17
2022-10-05T06:34:55.184Z,3.33
2022-10-05T06:37:02.264Z,0.47
2022-10-05T06:39:44.427Z,1.33
2022-10-05T06:42:04.759Z,3.42
2022-10-05T06:44:42.981Z,2.53
2022-10-05T06:47:20.883Z,3.78
2022-10-05T06:49:49.407Z,0.70
2022-10-05T06:52:27.107Z,0.68
2022-10-05T06:54:44.067Z,2.15
2022-10-05T06:56:57.499Z,1.35
2022-10-05T06:59:11.122Z,0.52
2022-10-05T07:01:25.060Z,0.65
2022-10-05T07:03:37.618Z,0.73
2022-10-05T07:05:59.707Z,0.87
2022-10-05T07:08:11.365Z,0.52
2022-10-05T07:10:27.537Z,1.10
2022-10-05T07:12:57.302Z,3.40
2022-10-05T07:15:26.026Z,1.75
2022-10-05T07:17:45.753Z,3.20
2022-10-05T07:19:59.617Z,2.92
2022-10-05T07:22:40.158Z,0.35
2022-10-05T07:24:50.799Z,1.88
2022-10-05T07:27:11.115Z,2.88
2022-10-05T07:29:24.713Z,1.27
2022-10-05T07:31:34.694Z,1.38
2022-10-05T07:33:47.690Z,1.15
2022-10-05T07:36:15.547Z,1.90
2022-10-05T07:38:32.394Z,0.43
2022-10-05T07:40:43.080Z,2.03
2022-10-05T07:42:56.607Z,0.80
2022-10-05T07:45:12.188Z,1.98
2022-10-05T07:47:25.598Z,0.50
2022-10-05T07:49:39.171Z,1.48
2022-10-05T07:51:46.892Z,0.50
2022-10-05T07:54:00.360Z,1.95
2022-10-05T07:56:11.555Z,2.05
2022-10-05T07:58:23.223Z,1.55
2022-10-05T08:00:47.056Z,1.35
2022-10-05T08:02:55.204Z,2.42
2022-10-05T08:05:03.972Z,3.30
2022-10-05T08:07:14.364Z,1.17
2022-10-05T08:09:41.932Z,1.83
2022-10-05T08:11:54.855Z,0.95
2022-10-05T08:14:06.879Z,4.88
2022-10-05T08:16:14.945Z,0.52
2022-10-05T08:18:36.361Z,6.72
2022-10-05T08:20:46.322Z,0.30
2022-10-05T08:22:59.595Z,1.63
2022-10-05T08:27:17.220Z,0.63
2022-10-05T08:29:28.967Z,1.27
2022-10-05T08:31:38.795Z,1.27
2022-10-05T08:33:53.081Z,0.77
2022-10-05T08:36:07.640Z,0.50
2022-10-05T08:38:17.152Z,0.80
2022-10-05T08:40:50.791Z,4.20
2022-10-05T08:43:14.474Z,2.30
2022-10-05T08:48:39.943Z,1.27
2022-10-05T08:51:18.064Z,1.35
2022-10-05T08:53:51.055Z,0.30
2022-10-05T08:56:11.250Z,1.03
2022-10-05T08:58:51.072Z,2.72
2022-10-05T09:01:03.442Z,3.88
2022-10-05T09:03:23.225Z,0.40
2022-10-05T09:06:06.059Z,1.70
2022-10-05T09:08:37.475Z,4.45
2022-10-05T09:11:07.493Z,1.15
2022-10-05T09:13:28.006Z,0.35
2022-10-05T09:16:05.710Z,0.70
2022-10-05T09:18:57.180Z,0.52
2022-10-05T09:21:07.384Z,0.43
2022-10-05T09:23:15.482Z,2.05
2022-10-05T09:25:25.225Z,0.30
2022-10-05T09:27:38.993Z,1.98
2022-10-05T09:30:16.985Z,1.77
2022-10-05T09:32:48.555Z,4.43
2022-10-05T09:35:06.710Z,2.10
2022-10-05T09:37:42.556Z,1.00
2022-10-05T09:40:24.618Z,0.50
2022-10-05T09:42:56.428Z,1.92
2022-10-05T09:45:29.200Z,1.40
2022-10-05T09:48:11.510Z,2.25
2022-10-05T09:50:55.535Z,3.45
2022-10-05T09:53:29.215Z,1.75
2022-10-05T09:56:07.616Z,1.20
2022-10-05T09:58:52.292Z,2.70
2022-10-05T10:01:32.673Z,0.38
2022-10-05T10:04:16.793Z,2.75
2022-10-05T10:06:46.709Z,0.40
2022-10-05T10:09:22.045Z,0.60
2022-10-05T10:11:42.224Z,4.35
2022-10-05T10:14:13.861Z,3.05
2022-10-05T10:16:35.364Z,0.73
2022-10-05T10:19:05.080Z,1.42
2022-10-05T10:21:35.330Z,0.98
2022-10-05T10:24:02.739Z,0.43
2022-10-05T10:26:47.932Z,2.13
2022-10-05T10:29:32.950Z,3.13
2022-10-05T10:31:55.939Z,0.50
2022-10-05T10:34:28.023Z,0.73
2022-10-05T10:36:52.200Z,7.30
2022-10-05T10:39:01.510Z,0.82
2022-10-05T10:41:36.525Z,2.25
2022-10-05T10:44:03.032Z,7.22
2022-10-05T10:46:20.331Z,2.83
2022-10-05T10:48:50.724Z,1.75
2022-10-05T10:51:15.997Z,2.22
2022-10-05T10:53:39.293Z,1.40
2022-10-05T10:55:54.168Z,4.78
2022-10-05T10:58:42.459Z,1.35
2022-10-05T11:00:55.112Z,1.95
2022-10-05T11:03:30.324Z,1.15
2022-10-05T11:05:47.924Z,4.07
2022-10-05T11:08:21.692Z,11.02
2022-10-05T11:11:01.994Z,3.40
2022-10-05T11:13:33.069Z,1.05
2022-10-05T11:16:12.402Z,5.00
2022-10-05T11:18:26.583Z,3.88
2022-10-05T11:21:06.287Z,3.92
2022-10-05T11:23:38.658Z,2.45
2022-10-05T11:26:16.041Z,1.95
2022-10-05T11:28:39.649Z,2.97
2022-10-05T11:33:57.081Z,4.32
2022-10-05T11:36:27.782Z,2.65
2022-10-05T11:38:57.507Z,1.92
2022-10-05T11:41:33.050Z,1.35
2022-10-05T11:44:17.395Z,0.90
2022-10-05T11:46:27.171Z,1.58
2022-10-05T11:49:07.142Z,2.88
2022-10-05T11:51:29.212Z,5.18
2022-10-05T11:53:38.683Z,4.30
2022-10-05T11:55:46.877Z,3.60
2022-10-05T11:57:55.406Z,1.17
2022-10-05T12:00:09.306Z,1.25
2022-10-05T12:02:47.010Z,4.45
2022-10-05T12:04:59.059Z,3.17
2022-10-05T12:07:14.225Z,1.35
2022-10-05T12:09:34.910Z,3.00
2022-10-05T12:11:48.212Z,2.45
2022-10-05T12:13:59.275Z,2.88
2022-10-05T12:16:09.797Z,7.57
2022-10-05T12:18:19.169Z,8.02
2022-10-05T12:20:29.893Z,9.05
2022-10-05T12:22:41.134Z,1.58
2022-10-05T12:25:04.279Z,1.20
2022-10-05T12:27:14.478Z,6.65
2022-10-05T12:29:24.788Z,3.38
2022-10-05T12:31:37.720Z,1.42
2022-10-05T12:33:48.837Z,5.03
2022-10-05T12:35:58.319Z,1.20
2022-10-05T12:38:13.217Z,5.93
2022-10-05T12:40:26.446Z,4.88
2022-10-05T12:42:41.644Z,5.72
2022-10-05T12:45:09.609Z,11.77
2022-10-05T12:47:21.331Z,3.42
2022-10-05T12:50:03.433Z,3.55
2022-10-05T12:52:14.662Z,8.77
2022-10-05T12:54:30.352Z,3.88
2022-10-05T12:56:44.592Z,4.45
2022-10-05T12:58:55.006Z,6.38
2022-10-05T13:01:07.450Z,5.50
2022-10-05T13:03:20.046Z,1.63
2022-10-05T13:05:32.235Z,0.43
2022-10-05T13:08:13.779Z,5.25
2022-10-05T13:10:32.610Z,4.60
2022-10-05T13:12:48.165Z,7.30
2022-10-05T13:15:04.131Z,4.18
2022-10-05T13:17:13.760Z,5.47
2022-10-05T13:19:35.944Z,5.85
2022-10-05T13:21:57.426Z,1.63
2022-10-05T13:24:06.562Z,4.60
2022-10-05T13:26:17.944Z,0.65
2022-10-05T13:28:26.609Z,2.35
2022-10-05T13:30:31.260Z,3.50
2022-10-05T13:32:38.226Z,2.70
2022-10-05T13:34:49.721Z,1.95
2022-10-05T13:37:07.293Z,2.70
2022-10-05T13:39:23.009Z,1.50
2022-10-05T13:41:40.323Z,0.73
2022-10-05T13:43:50.890Z,1.85
2022-10-05T13:45:57.698Z,1.65
2022-10-05T13:48:15.348Z,3.05
2022-10-05T13:50:22.903Z,2.17
2022-10-05T13:52:39.090Z,2.47
2022-10-05T13:54:49.667Z,4.80
2022-10-05T13:56:59.911Z,1.83
2022-10-05T13:59:17.620Z,1.95
2022-10-05T14:01:32.224Z,6.10
2022-10-05T14:03:39.896Z,3.13
2022-10-05T14:05:56.689Z,1.58
2022-10-05T14:08:17.511Z,7.70
2022-10-05T14:10:37.788Z,6.15
2022-10-05T14:12:46.039Z,3.83
2022-10-05T14:14:51.946Z,1.70
2022-10-05T14:16:58.107Z,1.55
2022-10-05T14:19:18.810Z,4.85
2022-10-05T14:21:24.501Z,2.65
2022-10-05T14:23:28.882Z,2.08
2022-10-05T14:25:47.072Z,4.78
2022-10-05T14:27:56.498Z,5.07
2022-10-05T14:30:02.509Z,6.30
2022-10-05T14:32:16.354Z,4.68
2022-10-05T14:34:30.924Z,9.80
2022-10-05T14:36:40.653Z,3.72
2022-10-05T14:38:54.035Z,6.22
2022-10-05T14:43:22.102Z,5.63
2022-10-05T14:45:30.146Z,7.90
2022-10-05T14:47:34.444Z,6.22
2022-10-05T14:50:10.916Z,5.25
2022-10-05T14:52:32.791Z,5.22
2022-10-05T14:54:48.350Z,10.43
2022-10-05T14:57:02.613Z,7.40
2022-10-05T14:59:39.709Z,9.50
2022-10-05T15:01:53.790Z,8.48
2022-10-05T15:04:10.279Z,7.57
2022-10-05T15:06:22.674Z,4.95
2022-10-05T15:08:46.681Z,10.40
2022-10-05T15:10:54.723Z,5.35
2022-10-05T15:13:11.244Z,9.20
2022-10-05T15:15:27.660Z,7.32
2022-10-05T15:17:37.841Z,7.70
2022-10-05T15:19:54.228Z,5.50
2022-10-05T15:22:25.770Z,7.30
2022-10-05T15:24:41.255Z,7.95
2022-10-05T15:26:51.898Z,14.68
2022-10-05T15:29:01.017Z,7.70
2022-10-05T15:31:12.930Z,9.18
2022-10-05T15:33:27.877Z,5.65
2022-10-05T15:36:00.836Z,11.45
2022-10-05T15:38:18.014Z,9.90
2022-10-05T15:40:28.258Z,14.57
2022-10-05T15:42:38.427Z,7.28
2022-10-05T15:44:52.466Z,6.07
2022-10-05T15:47:05.085Z,14.80
2022-10-05T15:49:21.778Z,4.57
2022-10-05T15:51:41.054Z,3.78
2022-10-05T15:53:48.450Z,11.57
2022-10-05T15:55:56.915Z,6.63
2022-10-05T15:58:31.523Z,5.15
2022-10-05T16:00:39.895Z,6.78
2022-10-05T16:02:52.751Z,5.85
2022-10-05T16:05:08.204Z,7.15
2022-10-05T16:07:36.087Z,7.88
2022-10-05T16:09:56.446Z,5.97
2022-10-05T16:12:11.838Z,5.85
2022-10-05T16:14:34.617Z,8.45
2022-10-05T16:16:47.403Z,8.93
2022-10-05T16:19:01.327Z,3.70
2022-10-05T16:21:19.256Z,10.25
2022-10-05T16:23:34.550Z,6.22
2022-10-05T16:25:52.609Z,9.60
2022-10-05T16:28:09.815Z,9.40
2022-10-05T16:30:18.286Z,9.32
2022-10-05T16:32:25.566Z,9.68
2022-10-05T16:34:45.692Z,13.30
2022-10-05T16:36:59.385Z,10.25
2022-10-05T16:39:08.645Z,9.65
2022-10-05T16:41:20.259Z,8.32
2022-10-05T16:43:33.857Z,5.40
2022-10-05T16:45:49.695Z,5.25
2022-10-05T16:48:02.314Z,6.20
2022-10-05T16:50:25.112Z,5.88
2022-10-05T16:52:29.690Z,8.30
2022-10-05T16:54:37.465Z,7.95
2022-10-05T16:56:45.022Z,17.63
2022-10-05T16:59:00.718Z,10.93
2022-10-05T17:01:15.261Z,8.98
2022-10-05T17:03:28.932Z,9.43
2022-10-05T17:05:47.886Z,5.75
2022-10-05T17:08:08.676Z,8.85
2022-10-05T17:10:47.364Z,13.98
2022-10-05T17:13:04.754Z,12.48
2022-10-05T17:15:32.230Z,5.15
2022-10-05T17:18:13.401Z,6.90
2022-10-05T17:20:32.190Z,11.30
2022-10-05T17:22:46.700Z,9.50
2022-10-05T17:25:00.165Z,13.02
2022-10-05T17:27:19.219Z,5.90
2022-10-05T17:29:30.527Z,7.30
2022-10-05T17:32:18.000Z,5.47
2022-10-05T17:34:29.601Z,6.43
2022-10-05T17:36:44.204Z,9.75
2022-10-05T17:38:52.602Z,4.60
2022-10-05T17:41:18.445Z,6.32
2022-10-05T17:43:27.418Z,6.00
2022-10-05T17:46:01.011Z,6.35
2022-10-05T17:50:31.393Z,9.55
2022-10-05T17:52:52.367Z,5.72
2022-10-05T17:55:30.880Z,6.47
2022-10-05T17:57:36.967Z,5.60
2022-10-05T17:59:47.614Z,8.75
2022-10-05T18:02:17.358Z,5.25
2022-10-05T18:04:32.618Z,4.90
2022-10-05T18:06:38.191Z,5.78
2022-10-05T18:08:42.774Z,5.88
2022-10-05T18:11:17.353Z,12.10
2022-10-05T18:13:36.908Z,30.65
2022-10-05T18:15:46.346Z,8.00
2022-10-05T18:17:53.920Z,5.05
2022-10-05T18:20:18.899Z,10.32
2022-10-05T18:22:30.593Z,10.25
2022-10-05T18:24:56.293Z,12.07
2022-10-05T18:27:13.353Z,6.20
2022-10-05T18:29:53.253Z,8.38
2022-10-05T18:32:03.715Z,10.88
2022-10-05T18:34:30.767Z,7.20
2022-10-05T18:36:56.182Z,8.85
2022-10-05T18:39:08.208Z,6.38
2022-10-05T18:41:31.824Z,8.65
2022-10-05T18:43:42.180Z,4.85
2022-10-05T18:46:01.310Z,3.13
2022-10-05T18:48:18.723Z,6.03
2022-10-05T18:50:30.648Z,7.53
2022-10-05T18:52:46.381Z,11.02
2022-10-05T18:55:03.114Z,5.82
2022-10-05T18:57:37.479Z,5.45
2022-10-05T18:59:49.155Z,4.40
2022-10-05T19:02:04.076Z,7.88
2022-10-05T19:04:19.075Z,7.65
2022-10-05T19:06:26.998Z,9.93
2022-10-05T19:08:39.657Z,5.65
2022-10-05T19:10:46.475Z,7.32
2022-10-05T19:13:03.091Z,6.80
2022-10-05T19:15:16.126Z,5.20
2022-10-05T19:17:26.672Z,11.15
2022-10-05T19:19:46.733Z,13.55
2022-10-05T19:21:59.152Z,11.18
2022-10-05T19:24:43.419Z,9.50
2022-10-05T19:27:02.555Z,7.68
2022-10-05T19:29:16.445Z,11.45
2022-10-05T19:31:30.443Z,12.27
2022-10-05T19:33:47.661Z,8.60
2022-10-05T19:36:01.063Z,10.60
2022-10-05T19:40:31.442Z,6.15
2022-10-05T19:42:51.151Z,6.65
2022-10-05T19:45:08.308Z,4.25
2022-10-05T19:47:25.028Z,10.02
2022-10-05T19:49:49.012Z,8.82
2022-10-05T19:51:53.029Z,4.32
2022-10-05T19:53:59.057Z,7.72
2022-10-05T19:56:18.257Z,13.50
2022-10-05T19:58:25.064Z,7.72
2022-10-05T20:00:31.817Z,16.60
2022-10-05T20:02:39.878Z,7.63
2022-10-05T20:04:49.665Z,8.93
2022-10-05T20:06:53.420Z,7.97
2022-10-05T20:09:00.324Z,9.65
2022-10-05T20:11:13.229Z,7.95
2022-10-05T20:13:21.543Z,9.60
2022-10-05T20:15:41.055Z,10.88
2022-10-05T20:18:01.692Z,10.10
2022-10-05T20:20:26.875Z,12.52
2022-10-05T20:22:34.602Z,8.10
2022-10-05T20:24:52.417Z,11.32
2022-10-05T20:27:02.764Z,13.98
2022-10-05T20:29:10.340Z,7.22
2022-10-05T20:31:14.788Z,7.75
2022-10-05T20:33:18.514Z,5.50
2022-10-05T20:35:23.204Z,9.43
2022-10-05T20:37:28.575Z,19.25
2022-10-05T20:39:32.885Z,16.00
2022-10-05T20:41:36.749Z,10.25
2022-10-05T20:43:40.905Z,15.15
2022-10-05T20:45:44.543Z,6.72
2022-10-05T20:47:49.065Z,7.68
2022-10-05T20:49:53.577Z,11.98
2022-10-05T20:51:57.324Z,12.38
2022-10-05T20:54:02.513Z,10.68
2022-10-05T20:56:06.696Z,10.85
2022-10-05T20:58:11.369Z,11.13
2022-10-05T21:00:15.816Z,13.30
2022-10-05T21:02:20.364Z,12.55
2022-10-05T21:04:25.844Z,12.75
2022-10-05T21:06:29.599Z,7.22
2022-10-05T21:08:34.145Z,12.07
2022-10-05T21:10:40.258Z,10.60
2022-10-05T21:12:43.865Z,13.45
2022-10-05T21:14:47.807Z,5.80
2022-10-05T21:16:52.747Z,11.10
2022-10-05T21:18:56.545Z,9.07
2022-10-05T21:21:02.393Z,17.02
2022-10-05T21:23:06.315Z,10.95
2022-10-05T21:25:10.963Z,13.02
2022-10-05T21:27:16.723Z,16.33
2022-10-05T21:29:20.201Z,17.05
2022-10-05T21:31:24.562Z,9.13
2022-10-05T21:33:28.480Z,6.43
2022-10-05T21:35:32.615Z,9.32
2022-10-05T21:37:36.277Z,8.15
2022-10-05T21:39:40.087Z,6.78
2022-10-05T21:41:43.852Z,9.82
2022-10-05T21:43:49.889Z,14.80
2022-10-05T21:45:55.501Z,7.50
2022-10-05T21:47:59.629Z,14.15
2022-10-05T21:50:05.599Z,12.98
2022-10-05T21:52:09.557Z,5.22
2022-10-05T21:54:15.515Z,14.30
2022-10-05T21:56:22.199Z,10.95
2022-10-05T21:58:28.374Z,12.13
2022-10-05T22:00:34.143Z,15.35
2022-10-05T22:02:37.948Z,8.48
2022-10-05T22:04:41.698Z,6.65
2022-10-05T22:06:45.284Z,12.40
2022-10-05T22:08:48.819Z,12.80
2022-10-05T22:10:54.930Z,12.38
2022-10-05T22:13:01.935Z,12.70
2022-10-05T22:15:07.634Z,10.95
2022-10-05T22:17:16.202Z,11.07
2022-10-05T22:19:21.808Z,17.08
2022-10-05T22:21:25.505Z,13.63
2022-10-05T22:23:29.498Z,8.27
2022-10-05T22:25:34.344Z,18.08
2022-10-05T22:27:38.239Z,12.73
2022-10-05T22:29:42.520Z,9.60
2022-10-05T22:31:49.016Z,11.70
2022-10-05T22:33:54.572Z,10.50
2022-10-05T22:36:00.478Z,6.65
2022-10-05T22:38:04.690Z,10.18
2022-10-05T22:40:11.641Z,11.90
2022-10-05T22:42:15.374Z,9.88
2022-10-05T22:44:18.910Z,7.60
2022-10-05T22:46:22.938Z,15.13
2022-10-05T22:48:27.121Z,10.60
2022-10-05T22:50:32.626Z,11.65
2022-10-05T22:52:36.322Z,11.52
2022-10-05T22:54:39.824Z,13.63
2022-10-05T22:56:43.311Z,13.70
2022-10-05T22:58:47.686Z,10.40
2022-10-05T23:00:58.440Z,11.00
2022-10-05T23:03:02.547Z,12.05
2022-10-05T23:05:07.119Z,9.55
2022-10-05T23:07:12.571Z,10.38
2022-10-05T23:09:16.120Z,23.10
2022-10-05T23:11:23.866Z,10.38
2022-10-05T23:13:27.617Z,13.93
2022-10-05T23:15:31.422Z,14.95
2022-10-05T23:17:36.975Z,13.32
2022-10-05T23:19:41.724Z,11.57
2022-10-05T23:21:45.383Z,16.90
2022-10-05T23:23:52.309Z,9.38
2022-10-05T23:26:00.862Z,13.13
2022-10-05T23:28:04.546Z,11.55
2022-10-05T23:30:09.896Z,10.18
2022-10-05T23:32:13.783Z,14.32
2022-10-05T23:34:17.336Z,12.32
2022-10-05T23:36:22.944Z,12.88
2022-10-05T23:38:27.232Z,10.10
2022-10-05T23:40:32.526Z,14.48
2022-10-05T23:42:36.785Z,15.57
2022-10-05T23:44:40.493Z,7.38
2022-10-05T23:46:44.293Z,9.82
2022-10-05T23:48:50.557Z,12.75
2022-10-05T23:50:56.079Z,12.63
2022-10-05T23:52:59.617Z,11.10
2022-10-05T23:55:03.562Z,13.38
2022-10-05T23:57:08.751Z,13.82
2022-10-05T23:59:12.564Z,11.45
